sensor_id;sensor_type;location;lat;lon;timestamp;temperature;humidity
67817;DHT22;54614;47.576;7.524;2022-10-16T00:01:24;25.50;61.40
67817;DHT22;54614;47.576;7.524;2022-10-16T00:03:52;25.50;61.40
67817;DHT22;54614;47.576;7.524;2022-10-16T00:06:21;25.50;61.40
67817;DHT22;54614;47.576;7.524;2022-10-16T00:08:48;25.80;62.40
67817;DHT22;54614;47.576;7.524;2022-10-16T00:11:23;25.60;61.50
67817;DHT22;54614;47.576;7.524;2022-10-16T00:13:54;25.50;61.30
67817;DHT22;54614;47.576;7.524;2022-10-16T00:16:23;25.60;61.40
67817;DHT22;54614;47.576;7.524;2022-10-16T00:18:49;25.50;61.40
67817;DHT22;54614;47.576;7.524;2022-10-16T00:21:23;25.50;61.30
67817;DHT22;54614;47.576;7.524;2022-10-16T00:24:02;25.50;61.40
67817;DHT22;54614;47.576;7.524;2022-10-16T00:26:32;25.50;61.30
67817;DHT22;54614;47.576;7.524;2022-10-16T00:28:59;25.50;61.40
67817;DHT22;54614;47.576;7.524;2022-10-16T00:31:26;25.50;61.40
67817;DHT22;54614;47.576;7.524;2022-10-16T00:33:52;25.50;61.50
67817;DHT22;54614;47.576;7.524;2022-10-16T00:36:20;25.60;61.40
67817;DHT22;54614;47.576;7.524;2022-10-16T00:38:51;25.60;61.30
67817;DHT22;54614;47.576;7.524;2022-10-16T00:41:21;25.50;61.30
67817;DHT22;54614;47.576;7.524;2022-10-16T00:43:57;25.50;61.40
67817;DHT22;54614;47.576;7.524;2022-10-16T00:46:31;25.50;61.40
67817;DHT22;54614;47.576;7.524;2022-10-16T00:49:17;25.50;61.30
67817;DHT22;54614;47.576;7.524;2022-10-16T00:51:52;25.50;61.30
67817;DHT22;54614;47.576;7.524;2022-10-16T00:56:54;25.50;61.30
67817;DHT22;54614;47.576;7.524;2022-10-16T00:59:34;25.60;61.20
67817;DHT22;54614;47.576;7.524;2022-10-16T01:02:03;25.60;62.40
67817;DHT22;54614;47.576;7.524;2022-10-16T01:04:35;25.50;63.20
67817;DHT22;54614;47.576;7.524;2022-10-16T01:10:23;25.50;61.30
67817;DHT22;54614;47.576;7.524;2022-10-16T01:13:08;25.50;61.30
67817;DHT22;54614;47.576;7.524;2022-10-16T01:15:47;25.60;61.50
67817;DHT22;54614;47.576;7.524;2022-10-16T01:18:34;25.70;62.20
67817;DHT22;54614;47.576;7.524;2022-10-16T01:21:28;25.60;61.20
67817;DHT22;54614;47.576;7.524;2022-10-16T01:24:17;25.50;61.20
67817;DHT22;54614;47.576;7.524;2022-10-16T01:29:57;25.50;61.50
67817;DHT22;54614;47.576;7.524;2022-10-16T01:35:45;25.50;61.50
67817;DHT22;54614;47.576;7.524;2022-10-16T01:38:21;25.50;61.30
67817;DHT22;54614;47.576;7.524;2022-10-16T01:41:08;25.50;61.30
67817;DHT22;54614;47.576;7.524;2022-10-16T01:43:42;26.10;62.00
67817;DHT22;54614;47.576;7.524;2022-10-16T01:46:13;25.60;62.60
67817;DHT22;54614;47.576;7.524;2022-10-16T01:48:44;25.70;63.70
67817;DHT22;54614;47.576;7.524;2022-10-16T01:51:13;25.60;62.90
67817;DHT22;54614;47.576;7.524;2022-10-16T01:53:44;25.50;61.20
67817;DHT22;54614;47.576;7.524;2022-10-16T01:56:17;25.50;61.10
67817;DHT22;54614;47.576;7.524;2022-10-16T01:58:52;25.50;61.10
67817;DHT22;54614;47.576;7.524;2022-10-16T02:01:31;25.50;61.10
67817;DHT22;54614;47.576;7.524;2022-10-16T02:04:04;25.60;62.20
67817;DHT22;54614;47.576;7.524;2022-10-16T02:06:38;25.50;61.20
67817;DHT22;54614;47.576;7.524;2022-10-16T02:09:04;25.50;61.20
67817;DHT22;54614;47.576;7.524;2022-10-16T02:11:30;25.40;61.20
67817;DHT22;54614;47.576;7.524;2022-10-16T02:14:02;25.50;61.20
67817;DHT22;54614;47.576;7.524;2022-10-16T02:16:39;25.60;62.10
67817;DHT22;54614;47.576;7.524;2022-10-16T02:19:10;25.50;61.20
67817;DHT22;54614;47.576;7.524;2022-10-16T02:22:04;25.50;61.20
67817;DHT22;54614;47.576;7.524;2022-10-16T02:24:54;25.50;61.30
67817;DHT22;54614;47.576;7.524;2022-10-16T02:27:47;25.50;61.20
67817;DHT22;54614;47.576;7.524;2022-10-16T02:30:26;25.40;61.00
67817;DHT22;54614;47.576;7.524;2022-10-16T02:32:53;25.60;61.10
67817;DHT22;54614;47.576;7.524;2022-10-16T02:35:22;25.60;61.10
67817;DHT22;54614;47.576;7.524;2022-10-16T02:37:50;25.50;61.20
67817;DHT22;54614;47.576;7.524;2022-10-16T02:40:17;25.60;61.40
67817;DHT22;54614;47.576;7.524;2022-10-16T02:42:44;25.50;61.20
67817;DHT22;54614;47.576;7.524;2022-10-16T02:45:11;25.50;61.50
67817;DHT22;54614;47.576;7.524;2022-10-16T02:47:37;25.50;61.20
67817;DHT22;54614;47.576;7.524;2022-10-16T02:50:04;25.50;61.30
67817;DHT22;54614;47.576;7.524;2022-10-16T02:52:30;25.40;61.90
67817;DHT22;54614;47.576;7.524;2022-10-16T02:54:56;25.50;61.30
67817;DHT22;54614;47.576;7.524;2022-10-16T02:57:21;25.50;61.30
67817;DHT22;54614;47.576;7.524;2022-10-16T02:59:47;25.50;61.20
67817;DHT22;54614;47.576;7.524;2022-10-16T03:02:13;25.50;61.20
67817;DHT22;54614;47.576;7.524;2022-10-16T03:04:39;25.50;61.30
67817;DHT22;54614;47.576;7.524;2022-10-16T03:07:05;25.40;61.30
67817;DHT22;54614;47.576;7.524;2022-10-16T03:09:31;25.50;61.10
67817;DHT22;54614;47.576;7.524;2022-10-16T03:11:57;25.20;60.90
67817;DHT22;54614;47.576;7.524;2022-10-16T03:14:23;25.50;61.10
67817;DHT22;54614;47.576;7.524;2022-10-16T03:16:48;25.50;61.00
67817;DHT22;54614;47.576;7.524;2022-10-16T03:19:16;25.50;60.90
67817;DHT22;54614;47.576;7.524;2022-10-16T03:21:42;25.50;61.10
67817;DHT22;54614;47.576;7.524;2022-10-16T03:24:08;25.60;61.50
67817;DHT22;54614;47.576;7.524;2022-10-16T03:26:34;25.50;61.30
67817;DHT22;54614;47.576;7.524;2022-10-16T03:29:00;25.40;61.10
67817;DHT22;54614;47.576;7.524;2022-10-16T03:31:29;25.40;61.00
67817;DHT22;54614;47.576;7.524;2022-10-16T03:33:56;25.50;61.30
67817;DHT22;54614;47.576;7.524;2022-10-16T03:36:22;25.40;61.00
67817;DHT22;54614;47.576;7.524;2022-10-16T03:38:48;25.50;63.20
67817;DHT22;54614;47.576;7.524;2022-10-16T03:41:13;25.50;61.00
67817;DHT22;54614;47.576;7.524;2022-10-16T03:43:39;25.60;68.90
67817;DHT22;54614;47.576;7.524;2022-10-16T03:46:05;25.50;60.90
67817;DHT22;54614;47.576;7.524;2022-10-16T03:48:31;25.50;60.90
67817;DHT22;54614;47.576;7.524;2022-10-16T03:50:58;25.50;60.90
67817;DHT22;54614;47.576;7.524;2022-10-16T03:53:24;25.50;61.50
67817;DHT22;54614;47.576;7.524;2022-10-16T03:55:50;25.50;63.20
67817;DHT22;54614;47.576;7.524;2022-10-16T03:58:16;25.50;64.20
67817;DHT22;54614;47.576;7.524;2022-10-16T04:00:43;25.50;60.90
67817;DHT22;54614;47.576;7.524;2022-10-16T04:03:11;25.50;63.10
67817;DHT22;54614;47.576;7.524;2022-10-16T04:05:37;25.50;60.90
67817;DHT22;54614;47.576;7.524;2022-10-16T04:08:03;25.50;60.90
67817;DHT22;54614;47.576;7.524;2022-10-16T04:10:29;25.50;60.80
67817;DHT22;54614;47.576;7.524;2022-10-16T04:12:55;25.40;60.70
67817;DHT22;54614;47.576;7.524;2022-10-16T04:15:22;25.50;60.90
67817;DHT22;54614;47.576;7.524;2022-10-16T04:17:49;25.40;60.90
67817;DHT22;54614;47.576;7.524;2022-10-16T04:20:14;25.40;60.80
67817;DHT22;54614;47.576;7.524;2022-10-16T04:22:40;25.40;61.80
67817;DHT22;54614;47.576;7.524;2022-10-16T04:25:06;25.50;60.70
67817;DHT22;54614;47.576;7.524;2022-10-16T04:27:32;25.40;60.80
67817;DHT22;54614;47.576;7.524;2022-10-16T04:29:59;25.50;61.20
67817;DHT22;54614;47.576;7.524;2022-10-16T04:32:25;25.50;60.90
67817;DHT22;54614;47.576;7.524;2022-10-16T04:34:52;25.50;60.80
67817;DHT22;54614;47.576;7.524;2022-10-16T04:37:18;25.50;60.80
67817;DHT22;54614;47.576;7.524;2022-10-16T04:39:44;25.40;60.80
67817;DHT22;54614;47.576;7.524;2022-10-16T04:42:10;25.40;60.80
67817;DHT22;54614;47.576;7.524;2022-10-16T04:44:36;25.50;61.40
67817;DHT22;54614;47.576;7.524;2022-10-16T04:47:02;25.40;60.90
67817;DHT22;54614;47.576;7.524;2022-10-16T04:49:29;25.40;60.80
67817;DHT22;54614;47.576;7.524;2022-10-16T04:51:55;25.40;60.80
67817;DHT22;54614;47.576;7.524;2022-10-16T04:54:21;25.40;60.80
67817;DHT22;54614;47.576;7.524;2022-10-16T04:56:47;25.40;60.70
67817;DHT22;54614;47.576;7.524;2022-10-16T04:59:15;25.50;62.30
67817;DHT22;54614;47.576;7.524;2022-10-16T05:01:42;25.50;60.70
67817;DHT22;54614;47.576;7.524;2022-10-16T05:04:10;25.40;60.70
67817;DHT22;54614;47.576;7.524;2022-10-16T05:06:37;25.40;63.60
67817;DHT22;54614;47.576;7.524;2022-10-16T05:09:04;25.50;60.80
67817;DHT22;54614;47.576;7.524;2022-10-16T05:11:31;25.40;60.60
67817;DHT22;54614;47.576;7.524;2022-10-16T05:13:57;25.40;60.60
67817;DHT22;54614;47.576;7.524;2022-10-16T05:16:23;25.40;60.80
67817;DHT22;54614;47.576;7.524;2022-10-16T05:18:49;25.40;60.70
67817;DHT22;54614;47.576;7.524;2022-10-16T05:21:16;25.40;60.70
67817;DHT22;54614;47.576;7.524;2022-10-16T05:23:42;25.30;61.50
67817;DHT22;54614;47.576;7.524;2022-10-16T05:26:08;25.30;60.70
67817;DHT22;54614;47.576;7.524;2022-10-16T05:28:33;25.50;60.80
67817;DHT22;54614;47.576;7.524;2022-10-16T05:31:04;25.50;60.80
67817;DHT22;54614;47.576;7.524;2022-10-16T05:33:34;25.30;60.80
67817;DHT22;54614;47.576;7.524;2022-10-16T05:36:07;25.40;60.80
67817;DHT22;54614;47.576;7.524;2022-10-16T05:38:37;25.30;60.80
67817;DHT22;54614;47.576;7.524;2022-10-16T05:41:04;25.40;60.80
67817;DHT22;54614;47.576;7.524;2022-10-16T05:43:31;25.40;60.70
67817;DHT22;54614;47.576;7.524;2022-10-16T05:46:05;25.40;60.60
67817;DHT22;54614;47.576;7.524;2022-10-16T05:48:32;25.30;60.70
67817;DHT22;54614;47.576;7.524;2022-10-16T05:51:00;25.40;60.70
67817;DHT22;54614;47.576;7.524;2022-10-16T05:53:29;25.40;60.60
67817;DHT22;54614;47.576;7.524;2022-10-16T05:55:56;25.30;60.70
67817;DHT22;54614;47.576;7.524;2022-10-16T05:58:23;25.50;60.70
67817;DHT22;54614;47.576;7.524;2022-10-16T06:00:59;25.50;61.20
67817;DHT22;54614;47.576;7.524;2022-10-16T06:03:28;25.50;61.00
67817;DHT22;54614;47.576;7.524;2022-10-16T06:05:54;25.50;61.30
67817;DHT22;54614;47.576;7.524;2022-10-16T06:08:21;25.50;61.20
67817;DHT22;54614;47.576;7.524;2022-10-16T06:10:48;25.50;61.10
67817;DHT22;54614;47.576;7.524;2022-10-16T06:13:25;25.50;61.20
67817;DHT22;54614;47.576;7.524;2022-10-16T06:15:51;25.50;61.20
67817;DHT22;54614;47.576;7.524;2022-10-16T06:18:16;25.40;61.20
67817;DHT22;54614;47.576;7.524;2022-10-16T06:20:42;25.50;61.20
67817;DHT22;54614;47.576;7.524;2022-10-16T06:23:08;25.50;61.40
67817;DHT22;54614;47.576;7.524;2022-10-16T06:25:34;25.50;61.40
67817;DHT22;54614;47.576;7.524;2022-10-16T06:28:00;25.50;61.20
67817;DHT22;54614;47.576;7.524;2022-10-16T06:30:25;25.30;61.40
67817;DHT22;54614;47.576;7.524;2022-10-16T06:32:51;25.50;61.30
67817;DHT22;54614;47.576;7.524;2022-10-16T06:35:17;25.50;61.40
67817;DHT22;54614;47.576;7.524;2022-10-16T06:37:43;25.40;61.30
67817;DHT22;54614;47.576;7.524;2022-10-16T06:40:08;25.40;61.30
67817;DHT22;54614;47.576;7.524;2022-10-16T06:42:34;25.40;61.30
67817;DHT22;54614;47.576;7.524;2022-10-16T06:45:00;25.40;61.00
67817;DHT22;54614;47.576;7.524;2022-10-16T06:47:27;25.40;61.00
67817;DHT22;54614;47.576;7.524;2022-10-16T06:49:53;25.50;61.10
67817;DHT22;54614;47.576;7.524;2022-10-16T06:52:19;25.50;61.30
67817;DHT22;54614;47.576;7.524;2022-10-16T06:54:44;25.50;61.70
67817;DHT22;54614;47.576;7.524;2022-10-16T06:57:10;25.50;61.20
67817;DHT22;54614;47.576;7.524;2022-10-16T06:59:36;25.60;61.90
67817;DHT22;54614;47.576;7.524;2022-10-16T07:02:02;25.30;61.90
67817;DHT22;54614;47.576;7.524;2022-10-16T07:04:27;25.40;62.20
67817;DHT22;54614;47.576;7.524;2022-10-16T07:06:53;25.10;63.30
67817;DHT22;54614;47.576;7.524;2022-10-16T07:09:19;25.30;62.60
67817;DHT22;54614;47.576;7.524;2022-10-16T07:11:45;25.50;62.00
67817;DHT22;54614;47.576;7.524;2022-10-16T07:14:15;25.70;61.70
67817;DHT22;54614;47.576;7.524;2022-10-16T07:16:43;25.60;61.70
67817;DHT22;54614;47.576;7.524;2022-10-16T07:19:09;25.70;61.60
67817;DHT22;54614;47.576;7.524;2022-10-16T07:21:37;25.60;61.90
67817;DHT22;54614;47.576;7.524;2022-10-16T07:24:05;25.80;61.50
67817;DHT22;54614;47.576;7.524;2022-10-16T07:26:34;25.70;61.70
67817;DHT22;54614;47.576;7.524;2022-10-16T07:29:01;25.90;61.20
67817;DHT22;54614;47.576;7.524;2022-10-16T07:31:27;25.70;61.80
67817;DHT22;54614;47.576;7.524;2022-10-16T07:33:54;25.50;62.10
67817;DHT22;54614;47.576;7.524;2022-10-16T07:36:20;25.70;61.80
67817;DHT22;54614;47.576;7.524;2022-10-16T07:38:46;25.80;61.40
67817;DHT22;54614;47.576;7.524;2022-10-16T07:41:17;25.90;61.20
67817;DHT22;54614;47.576;7.524;2022-10-16T07:43:52;25.90;61.10
67817;DHT22;54614;47.576;7.524;2022-10-16T07:46:20;25.90;60.90
67817;DHT22;54614;47.576;7.524;2022-10-16T07:48:48;25.90;61.10
67817;DHT22;54614;47.576;7.524;2022-10-16T07:51:19;26.00;61.10
67817;DHT22;54614;47.576;7.524;2022-10-16T07:53:47;26.00;61.10
67817;DHT22;54614;47.576;7.524;2022-10-16T07:56:15;26.10;61.20
67817;DHT22;54614;47.576;7.524;2022-10-16T07:58:43;26.10;61.30
67817;DHT22;54614;47.576;7.524;2022-10-16T08:01:12;26.30;61.20
67817;DHT22;54614;47.576;7.524;2022-10-16T08:03:42;26.30;61.10
67817;DHT22;54614;47.576;7.524;2022-10-16T08:06:09;26.40;61.20
67817;DHT22;54614;47.576;7.524;2022-10-16T08:08:35;26.20;61.80
67817;DHT22;54614;47.576;7.524;2022-10-16T08:11:01;26.40;61.90
67817;DHT22;54614;47.576;7.524;2022-10-16T08:13:29;26.00;62.00
67817;DHT22;54614;47.576;7.524;2022-10-16T08:15:56;26.20;61.80
67817;DHT22;54614;47.576;7.524;2022-10-16T08:18:22;26.40;61.30
67817;DHT22;54614;47.576;7.524;2022-10-16T08:20:55;26.50;63.60
67817;DHT22;54614;47.576;7.524;2022-10-16T08:23:22;26.60;60.70
67817;DHT22;54614;47.576;7.524;2022-10-16T08:25:48;26.50;61.30
67817;DHT22;54614;47.576;7.524;2022-10-16T08:28:14;26.30;61.00
67817;DHT22;54614;47.576;7.524;2022-10-16T08:30:42;26.50;61.00
67817;DHT22;54614;47.576;7.524;2022-10-16T08:33:07;26.60;61.20
67817;DHT22;54614;47.576;7.524;2022-10-16T08:35:33;26.50;62.10
67817;DHT22;54614;47.576;7.524;2022-10-16T08:37:59;26.60;61.40
67817;DHT22;54614;47.576;7.524;2022-10-16T08:40:29;26.60;61.60
67817;DHT22;54614;47.576;7.524;2022-10-16T08:48:52;26.30;62.90
67817;DHT22;54614;47.576;7.524;2022-10-16T08:51:24;26.10;63.10
67817;DHT22;54614;47.576;7.524;2022-10-16T08:54:01;26.10;63.50
67817;DHT22;54614;47.576;7.524;2022-10-16T08:56:28;26.00;63.60
67817;DHT22;54614;47.576;7.524;2022-10-16T08:58:54;26.30;63.00
67817;DHT22;54614;47.576;7.524;2022-10-16T09:01:25;26.40;62.60
67817;DHT22;54614;47.576;7.524;2022-10-16T09:10:15;26.50;62.30
67817;DHT22;54614;47.576;7.524;2022-10-16T09:15:49;26.50;62.20
67817;DHT22;54614;47.576;7.524;2022-10-16T09:18:51;26.50;62.40
67817;DHT22;54614;47.576;7.524;2022-10-16T09:21:30;26.40;62.80
67817;DHT22;54614;47.576;7.524;2022-10-16T09:24:13;26.50;63.30
67817;DHT22;54614;47.576;7.524;2022-10-16T09:26:45;26.30;63.30
67817;DHT22;54614;47.576;7.524;2022-10-16T09:29:17;26.20;63.90
67817;DHT22;54614;47.576;7.524;2022-10-16T09:31:47;26.10;64.00
67817;DHT22;54614;47.576;7.524;2022-10-16T09:34:34;26.10;64.10
67817;DHT22;54614;47.576;7.524;2022-10-16T09:37:10;26.30;64.40
67817;DHT22;54614;47.576;7.524;2022-10-16T09:39:51;26.30;64.20
67817;DHT22;54614;47.576;7.524;2022-10-16T09:42:32;26.30;64.20
67817;DHT22;54614;47.576;7.524;2022-10-16T09:45:02;26.40;64.00
67817;DHT22;54614;47.576;7.524;2022-10-16T09:47:30;26.40;64.20
67817;DHT22;54614;47.576;7.524;2022-10-16T09:50:13;26.50;64.00
67817;DHT22;54614;47.576;7.524;2022-10-16T09:52:47;26.60;63.80
67817;DHT22;54614;47.576;7.524;2022-10-16T09:55:17;26.70;63.60
67817;DHT22;54614;47.576;7.524;2022-10-16T09:57:54;26.60;64.00
67817;DHT22;54614;47.576;7.524;2022-10-16T10:00:22;26.70;63.70
67817;DHT22;54614;47.576;7.524;2022-10-16T10:02:49;26.70;63.70
67817;DHT22;54614;47.576;7.524;2022-10-16T10:05:27;26.60;64.90
67817;DHT22;54614;47.576;7.524;2022-10-16T10:08:02;26.80;64.40
67817;DHT22;54614;47.576;7.524;2022-10-16T10:10:41;26.90;64.00
67817;DHT22;54614;47.576;7.524;2022-10-16T10:13:19;26.90;63.60
67817;DHT22;54614;47.576;7.524;2022-10-16T10:15:47;27.00;63.30
67817;DHT22;54614;47.576;7.524;2022-10-16T10:18:18;27.00;64.30
67817;DHT22;54614;47.576;7.524;2022-10-16T10:20:57;27.00;64.00
67817;DHT22;54614;47.576;7.524;2022-10-16T10:23:26;27.10;63.80
67817;DHT22;54614;47.576;7.524;2022-10-16T10:26:14;27.20;63.70
67817;DHT22;54614;47.576;7.524;2022-10-16T10:28:52;27.20;63.70
67817;DHT22;54614;47.576;7.524;2022-10-16T10:34:50;27.30;63.90
67817;DHT22;54614;47.576;7.524;2022-10-16T10:40:56;27.30;63.90
67817;DHT22;54614;47.576;7.524;2022-10-16T10:46:35;27.00;64.00
67817;DHT22;54614;47.576;7.524;2022-10-16T10:49:37;26.90;64.10
67817;DHT22;54614;47.576;7.524;2022-10-16T11:09:37;27.50;86.90
67817;DHT22;54614;47.576;7.524;2022-10-16T11:14:58;27.70;69.80
67817;DHT22;54614;47.576;7.524;2022-10-16T11:17:45;27.60;65.40
67817;DHT22;54614;47.576;7.524;2022-10-16T11:20:28;27.80;72.40
67817;DHT22;54614;47.576;7.524;2022-10-16T11:23:24;27.90;72.60
67817;DHT22;54614;47.576;7.524;2022-10-16T11:25:57;27.80;69.90
67817;DHT22;54614;47.576;7.524;2022-10-16T11:28:38;27.80;79.70
67817;DHT22;54614;47.576;7.524;2022-10-16T11:37:12;28.00;78.90
67817;DHT22;54614;47.576;7.524;2022-10-16T11:39:43;27.90;70.60
67817;DHT22;54614;47.576;7.524;2022-10-16T11:42:25;27.60;71.70
67817;DHT22;54614;47.576;7.524;2022-10-16T11:50:54;27.60;65.00
67817;DHT22;54614;47.576;7.524;2022-10-16T11:56:20;27.80;87.40
67817;DHT22;54614;47.576;7.524;2022-10-16T11:59:03;27.80;87.30
67817;DHT22;54614;47.576;7.524;2022-10-16T12:04:30;27.80;66.90
67817;DHT22;54614;47.576;7.524;2022-10-16T12:07:18;28.40;76.00
67817;DHT22;54614;47.576;7.524;2022-10-16T12:10:10;27.50;88.20
67817;DHT22;54614;47.576;7.524;2022-10-16T12:12:44;27.40;83.60
67817;DHT22;54614;47.576;7.524;2022-10-16T12:15:28;27.30;90.60
67817;DHT22;54614;47.576;7.524;2022-10-16T12:17:56;27.30;90.50
67817;DHT22;54614;47.576;7.524;2022-10-16T12:20:28;27.30;91.50
67817;DHT22;54614;47.576;7.524;2022-10-16T12:23:04;27.30;90.20
67817;DHT22;54614;47.576;7.524;2022-10-16T12:28:22;27.30;91.10
67817;DHT22;54614;47.576;7.524;2022-10-16T12:30:58;27.40;88.40
67817;DHT22;54614;47.576;7.524;2022-10-16T12:33:33;27.40;82.10
67817;DHT22;54614;47.576;7.524;2022-10-16T12:36:03;27.50;84.90
67817;DHT22;54614;47.576;7.524;2022-10-16T12:38:48;27.10;79.40
67817;DHT22;54614;47.576;7.524;2022-10-16T12:41:35;27.60;71.30
67817;DHT22;54614;47.576;7.524;2022-10-16T12:44:20;27.80;75.80
67817;DHT22;54614;47.576;7.524;2022-10-16T12:46:51;28.30;74.30
67817;DHT22;54614;47.576;7.524;2022-10-16T12:49:31;28.00;71.70
67817;DHT22;54614;47.576;7.524;2022-10-16T12:52:02;27.90;71.40
67817;DHT22;54614;47.576;7.524;2022-10-16T12:54:31;28.00;71.50
67817;DHT22;54614;47.576;7.524;2022-10-16T13:05:52;28.00;60.90
67817;DHT22;54614;47.576;7.524;2022-10-16T13:20:46;28.00;60.90
67817;DHT22;54614;47.576;7.524;2022-10-16T13:26:27;28.00;61.20
67817;DHT22;54614;47.576;7.524;2022-10-16T13:29:09;28.10;88.20
67817;DHT22;54614;47.576;7.524;2022-10-16T13:31:38;28.10;87.60
67817;DHT22;54614;47.576;7.524;2022-10-16T13:34:05;28.00;61.00
67817;DHT22;54614;47.576;7.524;2022-10-16T13:36:45;28.00;68.60
67817;DHT22;54614;47.576;7.524;2022-10-16T13:39:25;27.90;61.10
67817;DHT22;54614;47.576;7.524;2022-10-16T13:44:47;28.00;64.10
67817;DHT22;54614;47.576;7.524;2022-10-16T13:47:22;27.90;64.50
67817;DHT22;54614;47.576;7.524;2022-10-16T13:50:05;28.00;72.30
67817;DHT22;54614;47.576;7.524;2022-10-16T13:52:36;28.00;72.40
67817;DHT22;54614;47.576;7.524;2022-10-16T13:55:09;27.90;74.70
67817;DHT22;54614;47.576;7.524;2022-10-16T13:57:40;27.90;73.30
67817;DHT22;54614;47.576;7.524;2022-10-16T14:00:26;27.90;64.80
67817;DHT22;54614;47.576;7.524;2022-10-16T14:03:15;28.00;74.70
67817;DHT22;54614;47.576;7.524;2022-10-16T14:05:48;27.80;61.30
67817;DHT22;54614;47.576;7.524;2022-10-16T14:08:16;27.80;61.80
67817;DHT22;54614;47.576;7.524;2022-10-16T14:10:42;27.90;72.30
67817;DHT22;54614;47.576;7.524;2022-10-16T14:13:17;27.90;60.90
67817;DHT22;54614;47.576;7.524;2022-10-16T14:15:50;27.90;60.80
67817;DHT22;54614;47.576;7.524;2022-10-16T14:18:20;27.90;61.10
67817;DHT22;54614;47.576;7.524;2022-10-16T14:20:49;27.90;61.40
67817;DHT22;54614;47.576;7.524;2022-10-16T14:25:54;27.90;67.40
67817;DHT22;54614;47.576;7.524;2022-10-16T14:28:41;27.90;60.70
67817;DHT22;54614;47.576;7.524;2022-10-16T14:31:29;27.90;60.80
67817;DHT22;54614;47.576;7.524;2022-10-16T14:33:57;27.80;60.70
67817;DHT22;54614;47.576;7.524;2022-10-16T14:36:25;27.80;60.70
67817;DHT22;54614;47.576;7.524;2022-10-16T14:41:41;27.80;60.80
67817;DHT22;54614;47.576;7.524;2022-10-16T14:44:12;27.80;61.00
67817;DHT22;54614;47.576;7.524;2022-10-16T14:46:41;27.90;61.10
67817;DHT22;54614;47.576;7.524;2022-10-16T14:51:38;27.80;63.10
67817;DHT22;54614;47.576;7.524;2022-10-16T14:54:11;27.80;64.80
67817;DHT22;54614;47.576;7.524;2022-10-16T14:56:58;27.90;89.30
67817;DHT22;54614;47.576;7.524;2022-10-16T14:59:37;27.80;81.60
67817;DHT22;54614;47.576;7.524;2022-10-16T15:04:48;27.80;81.60
67817;DHT22;54614;47.576;7.524;2022-10-16T15:07:14;27.80;81.80
67817;DHT22;54614;47.576;7.524;2022-10-16T15:09:40;27.80;79.80
67817;DHT22;54614;47.576;7.524;2022-10-16T15:12:06;27.70;76.90
67817;DHT22;54614;47.576;7.524;2022-10-16T15:14:32;27.70;76.90
67817;DHT22;54614;47.576;7.524;2022-10-16T15:16:58;27.70;77.10
67817;DHT22;54614;47.576;7.524;2022-10-16T15:19:24;27.60;77.20
67817;DHT22;54614;47.576;7.524;2022-10-16T15:21:49;27.60;77.50
67817;DHT22;54614;47.576;7.524;2022-10-16T15:24:16;27.60;77.80
67817;DHT22;54614;47.576;7.524;2022-10-16T15:26:42;27.70;77.60
67817;DHT22;54614;47.576;7.524;2022-10-16T15:29:08;27.70;77.90
67817;DHT22;54614;47.576;7.524;2022-10-16T15:31:34;27.50;70.70
67817;DHT22;54614;47.576;7.524;2022-10-16T15:34:00;27.60;78.20
67817;DHT22;54614;47.576;7.524;2022-10-16T15:36:33;27.60;78.60
67817;DHT22;54614;47.576;7.524;2022-10-16T15:39:20;27.60;78.90
67817;DHT22;54614;47.576;7.524;2022-10-16T15:41:47;27.60;84.20
67817;DHT22;54614;47.576;7.524;2022-10-16T15:44:19;27.60;77.70
67817;DHT22;54614;47.576;7.524;2022-10-16T15:46:48;27.50;77.80
67817;DHT22;54614;47.576;7.524;2022-10-16T15:49:15;27.50;83.20
67817;DHT22;54614;47.576;7.524;2022-10-16T15:51:41;27.50;82.30
67817;DHT22;54614;47.576;7.524;2022-10-16T15:54:08;27.50;74.50
67817;DHT22;54614;47.576;7.524;2022-10-16T15:56:34;27.40;73.40
67817;DHT22;54614;47.576;7.524;2022-10-16T15:59:02;27.40;73.40
67817;DHT22;54614;47.576;7.524;2022-10-16T16:01:35;27.40;73.00
67817;DHT22;54614;47.576;7.524;2022-10-16T16:04:01;27.40;73.00
67817;DHT22;54614;47.576;7.524;2022-10-16T16:06:27;27.40;72.60
67817;DHT22;54614;47.576;7.524;2022-10-16T16:08:53;27.40;72.60
67817;DHT22;54614;47.576;7.524;2022-10-16T16:11:20;27.40;72.50
67817;DHT22;54614;47.576;7.524;2022-10-16T16:13:46;27.40;72.30
67817;DHT22;54614;47.576;7.524;2022-10-16T16:16:14;27.40;72.50
67817;DHT22;54614;47.576;7.524;2022-10-16T16:18:42;27.40;72.60
67817;DHT22;54614;47.576;7.524;2022-10-16T16:21:10;27.40;72.70
67817;DHT22;54614;47.576;7.524;2022-10-16T16:23:37;27.30;73.00
67817;DHT22;54614;47.576;7.524;2022-10-16T16:26:15;27.30;74.60
67817;DHT22;54614;47.576;7.524;2022-10-16T16:28:52;27.30;75.10
67817;DHT22;54614;47.576;7.524;2022-10-16T16:31:20;27.20;75.00
67817;DHT22;54614;47.576;7.524;2022-10-16T16:33:50;27.30;74.00
67817;DHT22;54614;47.576;7.524;2022-10-16T16:36:17;27.30;74.10
67817;DHT22;54614;47.576;7.524;2022-10-16T16:38:45;27.30;73.50
67817;DHT22;54614;47.576;7.524;2022-10-16T16:41:29;27.30;73.30
67817;DHT22;54614;47.576;7.524;2022-10-16T16:44:10;27.30;72.90
67817;DHT22;54614;47.576;7.524;2022-10-16T16:46:42;27.30;73.10
67817;DHT22;54614;47.576;7.524;2022-10-16T16:49:16;27.10;72.60
67817;DHT22;54614;47.576;7.524;2022-10-16T16:51:42;27.30;72.60
67817;DHT22;54614;47.576;7.524;2022-10-16T16:54:10;27.30;73.00
67817;DHT22;54614;47.576;7.524;2022-10-16T16:56:38;27.30;73.20
67817;DHT22;54614;47.576;7.524;2022-10-16T16:59:13;27.20;73.70
67817;DHT22;54614;47.576;7.524;2022-10-16T17:01:40;27.20;74.70
67817;DHT22;54614;47.576;7.524;2022-10-16T17:04:07;27.10;74.20
67817;DHT22;54614;47.576;7.524;2022-10-16T17:06:33;27.20;74.50
67817;DHT22;54614;47.576;7.524;2022-10-16T17:09:02;27.10;75.60
67817;DHT22;54614;47.576;7.524;2022-10-16T17:11:29;27.10;75.30
67817;DHT22;54614;47.576;7.524;2022-10-16T17:13:56;27.20;74.90
67817;DHT22;54614;47.576;7.524;2022-10-16T17:16:30;27.10;75.50
67817;DHT22;54614;47.576;7.524;2022-10-16T17:19:08;27.30;74.50
67817;DHT22;54614;47.576;7.524;2022-10-16T17:21:38;27.30;74.40
67817;DHT22;54614;47.576;7.524;2022-10-16T17:24:05;27.40;74.40
67817;DHT22;54614;47.576;7.524;2022-10-16T17:26:31;27.40;74.60
67817;DHT22;54614;47.576;7.524;2022-10-16T17:28:59;27.40;74.30
67817;DHT22;54614;47.576;7.524;2022-10-16T17:31:29;27.40;74.50
67817;DHT22;54614;47.576;7.524;2022-10-16T17:34:00;27.20;80.10
67817;DHT22;54614;47.576;7.524;2022-10-16T17:36:30;27.30;80.00
67817;DHT22;54614;47.576;7.524;2022-10-16T17:39:03;27.30;79.50
67817;DHT22;54614;47.576;7.524;2022-10-16T17:41:32;27.30;81.70
67817;DHT22;54614;47.576;7.524;2022-10-16T17:43:59;27.30;81.90
67817;DHT22;54614;47.576;7.524;2022-10-16T17:46:26;27.30;81.20
67817;DHT22;54614;47.576;7.524;2022-10-16T17:48:53;27.20;80.00